Time;durP1;ratioP1;P1;durP2;ratioP2;P2;SDS_P1;SDS_P2;PMS_P1;PMS_P2;Temp;Humidity;BMP_temperature;BMP_pressure;BME280_temperature;BME280_humidity;BME280_pressure;Samples;Min_cycle;Max_cycle;Signal;HPM_P1;HPM_P2
2022/09/15 00:00:54;;;;;;;5.78;2.83;;;16.10;99.90;;;;;;5072042;28;20014;-47
2022/09/15 00:03:22;;;;;;;4.63;2.70;;;16.10;99.90;;;;;;5088229;28;20119;-49
2022/09/15 00:05:50;;;;;;;6.47;3.75;;;16.10;99.90;;;;;;5072584;28;20094;-46
2022/09/15 00:08:17;;;;;;;4.57;3.00;;;16.20;99.90;;;;;;5073188;28;20068;-46
2022/09/15 00:10:53;;;;;;;3.88;2.45;;;16.20;99.90;;;;;;5082863;28;20444;-45
2022/09/15 00:13:20;;;;;;;4.40;3.03;;;16.20;99.90;;;;;;5080889;28;20567;-47
2022/09/15 00:15:47;;;;;;;3.92;2.85;;;16.20;99.90;;;;;;5072360;28;20456;-46
2022/09/15 00:18:14;;;;;;;5.43;2.63;;;16.30;99.90;;;;;;5072364;28;20046;-46
2022/09/15 00:20:42;;;;;;;3.90;2.38;;;16.30;99.90;;;;;;5087102;28;20111;-46
2022/09/15 00:23:10;;;;;;;6.70;2.45;;;16.30;99.90;;;;;;5077863;28;20124;-45
2022/09/15 00:25:47;;;;;;;5.57;2.72;;;16.30;99.90;;;;;;5078445;28;20068;-46
2022/09/15 00:28:15;;;;;;;4.45;2.65;;;16.20;99.90;;;;;;5070054;28;20405;-45
2022/09/15 00:30:53;;;;;;;5.55;3.03;;;16.20;99.90;;;;;;5072688;28;20036;-45
2022/09/15 00:33:21;;;;;;;5.38;2.67;;;16.20;99.90;;;;;;5078303;28;20044;-47
2022/09/15 00:35:50;;;;;;;8.88;3.72;;;16.20;99.90;;;;;;5077744;28;20115;-46
2022/09/15 00:38:17;;;;;;;5.32;3.53;;;16.20;99.90;;;;;;5073519;28;20521;-45
2022/09/15 00:40:52;;;;;;;8.23;4.40;;;16.20;99.90;;;;;;5077688;28;20489;-46
2022/09/15 00:43:47;;;;;;;6.97;3.85;;;16.20;99.90;;;;;;5087846;28;20120;-46
2022/09/15 00:46:16;;;;;;;5.18;3.20;;;16.10;99.90;;;;;;5074850;28;20079;-46
2022/09/15 00:49:14;;;;;;;6.57;3.22;;;16.10;99.90;;;;;;5072131;28;20508;-46
2022/09/15 00:51:59;;;;;;;7.22;3.15;;;16.10;99.90;;;;;;5070871;28;20131;-46
2022/09/15 00:54:34;;;;;;;4.63;2.97;;;16.10;99.90;;;;;;5071024;28;20076;-46
2022/09/15 00:57:06;;;;;;;6.40;3.03;;;16.10;99.90;;;;;;5072268;28;20068;-46
2022/09/15 00:59:38;;;;;;;6.43;3.42;;;16.10;99.90;;;;;;5063865;28;20513;-45
2022/09/15 01:02:31;;;;;;;5.32;3.30;;;16.10;99.90;;;;;;5074106;28;20068;-45
2022/09/15 01:05:00;;;;;;;6.18;3.40;;;16.10;99.90;;;;;;5065848;28;20044;-46
2022/09/15 01:07:36;;;;;;;5.75;3.20;;;16.00;99.90;;;;;;5074129;28;20119;-47
2022/09/15 01:10:23;;;;;;;6.32;3.65;;;16.00;99.90;;;;;;5079165;28;20068;-46
2022/09/15 01:12:51;;;;;;;4.72;2.97;;;16.00;99.90;;;;;;5069760;28;20565;-46
2022/09/15 01:15:19;;;;;;;7.28;3.38;;;16.00;99.90;;;;;;5075469;28;20075;-48
2022/09/15 01:18:18;;;;;;;5.78;4.10;;;16.00;99.90;;;;;;5072916;28;20115;-46
2022/09/15 01:21:04;;;;;;;;;;;16.00;99.90;;;;;;5066553;28;20119;-48
2022/09/15 01:24:08;;;;;;;5.72;3.70;;;16.00;99.90;;;;;;5069957;28;19999;-46
2022/09/15 01:26:51;;;;;;;10.00;3.83;;;15.90;99.90;;;;;;5051327;28;20080;-46
2022/09/15 01:29:35;;;;;;;8.38;3.55;;;15.90;99.90;;;;;;5070510;28;20127;-48
2022/09/15 01:35:20;;;;;;;6.47;3.42;;;15.80;99.90;;;;;;5071136;28;20146;-46
2022/09/15 01:38:13;;;;;;;5.97;3.67;;;15.90;99.90;;;;;;5066047;28;20127;-47
2022/09/15 01:40:47;;;;;;;5.93;4.28;;;15.80;99.90;;;;;;5056252;28;20536;-46
2022/09/15 01:43:15;;;;;;;7.22;4.32;;;15.80;99.90;;;;;;5080192;28;20520;-46
2022/09/15 01:45:45;;;;;;;9.55;5.80;;;15.70;99.90;;;;;;5077423;28;20124;-47
2022/09/15 01:48:15;;;;;;;8.23;4.88;;;15.80;99.90;;;;;;5071160;28;20040;-46
2022/09/15 01:50:46;;;;;;;7.07;4.60;;;15.70;99.90;;;;;;5070068;28;20068;-48
2022/09/15 01:53:16;;;;;;;10.25;4.57;;;15.70;99.90;;;;;;5076746;28;20452;-45
2022/09/15 01:56:10;;;;;;;7.65;4.70;;;15.70;99.90;;;;;;5071557;28;20127;-46
2022/09/15 01:58:38;;;;;;;7.13;4.80;;;15.80;99.90;;;;;;5056586;28;20140;-47
2022/09/15 02:01:12;;;;;;;6.40;4.40;;;15.70;99.90;;;;;;5066670;28;20076;-46
2022/09/15 02:03:56;;;;;;;8.88;4.80;;;15.70;99.90;;;;;;5067607;28;20106;-47
2022/09/15 02:06:50;;;;;;;9.02;4.85;;;15.70;99.90;;;;;;5069959;28;20099;-46
2022/09/15 02:09:29;;;;;;;8.77;4.45;;;15.70;99.90;;;;;;5069746;28;20087;-48
2022/09/15 02:11:59;;;;;;;6.97;4.78;;;15.70;99.90;;;;;;5054227;22;20473;-52
2022/09/15 02:14:54;;;;;;;8.35;4.53;;;15.70;99.90;;;;;;5028720;28;20549;-47
2022/09/15 02:17:23;;;;;;;9.45;4.97;;;15.70;99.90;;;;;;5020862;28;20530;-46
2022/09/15 02:19:56;;;;;;;6.15;4.18;;;15.70;99.90;;;;;;5027477;28;20117;-46
2022/09/15 02:22:27;;;;;;;9.25;4.60;;;15.70;99.90;;;;;;5030236;28;20038;-46
2022/09/15 02:25:02;;;;;;;6.88;4.13;;;15.70;99.90;;;;;;5029926;28;20069;-46
2022/09/15 02:27:36;;;;;;;12.00;4.30;;;15.70;99.90;;;;;;5029969;28;20045;-46
2022/09/15 02:30:10;;;;;;;10.32;4.57;;;15.80;99.90;;;;;;5034756;28;20104;-47
2022/09/15 02:32:42;;;;;;;8.77;4.40;;;15.80;99.90;;;;;;5030719;28;20073;-47
2022/09/15 02:35:10;;;;;;;7.63;4.35;;;15.80;99.90;;;;;;5027712;28;20056;-48
2022/09/15 02:37:37;;;;;;;7.38;3.75;;;15.80;99.90;;;;;;5030694;28;20077;-46
2022/09/15 02:40:06;;;;;;;13.52;6.50;;;15.70;99.90;;;;;;5030258;28;20076;-46
2022/09/15 02:42:33;;;;;;;4.55;3.40;;;15.70;99.90;;;;;;5034785;28;20061;-47
2022/09/15 02:45:01;;;;;;;6.85;3.72;;;15.80;99.90;;;;;;5031718;28;20061;-48
2022/09/15 02:47:28;;;;;;;6.05;3.63;;;15.80;99.90;;;;;;5034649;28;20073;-47
2022/09/15 02:49:55;;;;;;;;;;;15.70;99.90;;;;;;5054724;28;20120;-46
2022/09/15 02:52:22;;;;;;;5.68;3.30;;;15.80;99.90;;;;;;5054648;28;19952;-45
2022/09/15 02:54:49;;;;;;;5.32;2.85;;;15.80;99.90;;;;;;5047408;28;20120;-46
2022/09/15 02:57:16;;;;;;;8.15;3.40;;;15.80;99.90;;;;;;5054289;28;20049;-46
2022/09/15 03:02:28;;;;;;;5.45;3.35;;;15.80;99.90;;;;;;5046770;28;20424;-45
2022/09/15 03:04:55;;;;;;;;;;;15.70;99.90;;;;;;5054264;28;20069;-46
2022/09/15 03:07:22;;;;;;;8.07;3.10;;;15.70;99.90;;;;;;5053250;28;19959;-45
2022/09/15 03:09:49;;;;;;;6.32;3.35;;;15.70;99.90;;;;;;5054443;28;20115;-45
2022/09/15 03:12:16;;;;;;;7.28;3.97;;;15.70;99.90;;;;;;5053701;28;20045;-46
2022/09/15 03:14:43;;;;;;;;;;;15.70;99.90;;;;;;5054518;28;20072;-45
2022/09/15 03:17:09;;;;;;;8.25;3.85;;;15.70;99.90;;;;;;5053126;28;19959;-47
2022/09/15 03:19:36;;;;;;;5.43;4.03;;;15.70;99.90;;;;;;5036620;28;20115;-46
2022/09/15 03:22:03;;;;;;;7.97;5.10;;;15.60;99.90;;;;;;5053074;28;20079;-46
2022/09/15 03:24:30;;;;;;;6.93;4.93;;;15.60;99.90;;;;;;5053305;28;20120;-46
2022/09/15 03:26:57;;;;;;;7.53;4.97;;;15.60;99.90;;;;;;5048028;28;20061;-46
2022/09/15 03:29:23;;;;;;;7.85;5.22;;;15.60;99.90;;;;;;5053757;28;20040;-46
2022/09/15 03:31:50;;;;;;;6.97;4.80;;;15.60;99.90;;;;;;5053869;28;20120;-46
2022/09/15 03:34:17;;;;;;;;;;;15.60;99.90;;;;;;5052847;28;20049;-45
2022/09/15 03:36:44;;;;;;;9.32;5.53;;;15.50;99.90;;;;;;5052547;28;20439;-46
2022/09/15 03:39:11;;;;;;;7.45;5.45;;;15.50;99.90;;;;;;5053524;28;20557;-46
2022/09/15 03:41:38;;;;;;;8.10;5.45;;;15.50;99.90;;;;;;5053510;28;20134;-47
2022/09/15 03:44:04;;;;;;;8.85;6.18;;;15.50;99.90;;;;;;5050842;28;20332;-46
2022/09/15 03:46:31;;;;;;;9.50;6.35;;;15.50;99.90;;;;;;5047003;28;20079;-46
2022/09/15 03:48:58;;;;;;;8.75;5.50;;;15.50;99.90;;;;;;5053079;28;20517;-47
2022/09/15 03:51:25;;;;;;;11.90;5.53;;;15.50;99.90;;;;;;5052386;28;20090;-46
2022/09/15 03:53:51;;;;;;;8.63;5.03;;;15.50;99.90;;;;;;5044274;28;20540;-46
2022/09/15 03:56:30;;;;;;;7.53;5.53;;;15.50;99.90;;;;;;5047467;28;20040;-46
2022/09/15 03:58:58;;;;;;;10.00;4.78;;;15.50;99.90;;;;;;5044494;28;20072;-46
2022/09/15 04:01:25;;;;;;;7.47;5.43;;;15.50;99.90;;;;;;5039016;28;20116;-45
2022/09/15 04:03:52;;;;;;;9.43;5.70;;;15.50;99.90;;;;;;5045311;28;21287;-46
2022/09/15 04:06:21;;;;;;;11.93;6.13;;;15.50;99.90;;;;;;5039741;28;20438;-46
2022/09/15 04:08:49;;;;;;;8.38;6.07;;;15.50;99.90;;;;;;5046097;28;20144;-45
2022/09/15 04:11:17;;;;;;;10.30;6.82;;;15.50;99.90;;;;;;5052813;28;20080;-46
2022/09/15 04:13:45;;;;;;;11.30;6.75;;;15.50;99.90;;;;;;5049146;28;20923;-46
2022/09/15 04:16:17;;;;;;;11.48;7.15;;;15.40;99.90;;;;;;5049835;28;20079;-52
2022/09/15 04:18:44;;;;;;;11.27;8.10;;;15.40;99.90;;;;;;5052494;28;20045;-46
2022/09/15 04:21:13;;;;;;;12.80;7.40;;;15.40;99.90;;;;;;5051893;28;20135;-46
2022/09/15 04:23:40;;;;;;;13.13;7.88;;;15.40;99.90;;;;;;5052106;28;20115;-46
2022/09/15 04:26:17;;;;;;;14.20;8.90;;;15.40;99.90;;;;;;5051706;28;20561;-46
2022/09/15 04:28:44;;;;;;;13.45;8.57;;;15.40;99.90;;;;;;5052184;28;20033;-46
2022/09/15 04:31:13;;;;;;;13.93;9.13;;;15.40;99.90;;;;;;5051392;28;20088;-49
2022/09/15 04:33:41;;;;;;;12.50;8.07;;;15.30;99.90;;;;;;5052250;28;20033;-46
2022/09/15 04:36:11;;;;;;;13.57;8.68;;;15.30;99.90;;;;;;5050911;28;20076;-47
2022/09/15 04:38:38;;;;;;;10.90;7.38;;;15.40;99.90;;;;;;5051645;28;20684;-46
2022/09/15 04:41:05;;;;;;;10.50;7.20;;;15.40;99.90;;;;;;5051259;28;20490;-45
2022/09/15 04:43:33;;;;;;;13.05;7.38;;;15.40;99.90;;;;;;5043169;28;20071;-46
2022/09/15 04:46:00;;;;;;;11.98;6.85;;;15.40;99.90;;;;;;5047459;28;20123;-46
2022/09/15 04:48:27;;;;;;;9.07;5.72;;;15.40;99.90;;;;;;5051716;28;20037;-46
2022/09/15 04:50:59;;;;;;;9.00;5.72;;;15.50;99.90;;;;;;5052152;28;20486;-47
2022/09/15 04:53:25;;;;;;;8.55;5.25;;;15.50;99.90;;;;;;5051979;28;20106;-46
2022/09/15 04:55:52;;;;;;;7.90;5.68;;;15.50;99.90;;;;;;5050620;28;20033;-49
2022/09/15 04:58:19;;;;;;;11.35;6.10;;;15.50;99.90;;;;;;5045661;28;20123;-47
2022/09/15 05:00:45;;;;;;;10.00;5.80;;;15.50;99.90;;;;;;5048603;28;20076;-47
2022/09/15 05:03:13;;;;;;;8.30;5.13;;;15.50;99.90;;;;;;5050877;28;20062;-46
2022/09/15 05:05:40;;;;;;;;;;;15.60;99.90;;;;;;5050733;28;20550;-46
2022/09/15 05:08:07;;;;;;;8.25;5.80;;;15.60;99.90;;;;;;5049276;28;20007;-46
2022/09/15 05:10:34;;;;;;;11.45;7.53;;;15.60;99.90;;;;;;5047257;28;20072;-46
2022/09/15 05:13:00;;;;;;;16.92;7.55;;;15.60;99.90;;;;;;5051406;28;20045;-47
2022/09/15 05:15:27;;;;;;;12.20;7.35;;;15.60;99.90;;;;;;5032846;28;20145;-46
2022/09/15 05:17:54;;;;;;;13.73;7.78;;;15.50;99.90;;;;;;5051066;28;20549;-48
2022/09/15 05:20:21;;;;;;;11.45;7.70;;;15.50;99.90;;;;;;5043920;28;20128;-46
2022/09/15 05:22:47;;;;;;;;;;;15.50;99.90;;;;;;5051188;28;20099;-46
2022/09/15 05:25:14;;;;;;;11.85;7.63;;;15.40;99.90;;;;;;5047695;28;19956;-47
2022/09/15 05:27:41;;;;;;;11.80;6.88;;;15.50;99.90;;;;;;5049469;28;20064;-46
2022/09/15 05:30:08;;;;;;;12.82;7.43;;;15.50;99.90;;;;;;5050795;28;20477;-46
2022/09/15 05:32:55;;;;;;;17.00;7.70;;;15.50;99.90;;;;;;5044378;28;20037;-48
2022/09/15 05:35:22;;;;;;;13.15;6.78;;;15.50;99.90;;;;;;5030974;28;20075;-47
2022/09/15 05:37:49;;;;;;;11.98;7.05;;;15.50;99.90;;;;;;5036443;28;20489;-48
2022/09/15 05:40:16;;;;;;;13.93;7.70;;;15.50;99.90;;;;;;5050785;28;20119;-47
2022/09/15 05:42:42;;;;;;;12.15;7.88;;;15.50;99.90;;;;;;5037287;28;20045;-49
2022/09/15 05:45:09;;;;;;;14.30;7.80;;;15.50;99.90;;;;;;5045824;28;20107;-46
2022/09/15 05:47:36;;;;;;;13.38;7.82;;;15.50;99.90;;;;;;5051105;28;20073;-47
2022/09/15 05:50:03;;;;;;;16.55;9.40;;;15.50;99.90;;;;;;5061028;28;20045;-46
2022/09/15 05:52:30;;;;;;;14.10;8.70;;;15.50;99.90;;;;;;5050904;28;20079;-46
2022/09/15 05:54:56;;;;;;;15.90;8.73;;;15.50;99.90;;;;;;5048703;28;20068;-47
2022/09/15 05:57:25;;;;;;;12.40;8.60;;;15.50;99.90;;;;;;5050625;28;20098;-46
2022/09/15 05:59:52;;;;;;;12.95;7.47;;;15.50;99.90;;;;;;5050762;28;20494;-47
2022/09/15 06:02:19;;;;;;;11.10;6.50;;;15.50;99.90;;;;;;5047916;28;20045;-47
2022/09/15 06:04:46;;;;;;;8.02;5.65;;;15.50;99.90;;;;;;5050744;28;20551;-46
2022/09/15 06:07:12;;;;;;;13.25;5.55;;;15.60;99.90;;;;;;5050931;28;20041;-48
2022/09/15 06:09:39;;;;;;;8.30;4.60;;;15.60;99.90;;;;;;5051388;28;20045;-48
2022/09/15 06:12:06;;;;;;;9.07;5.90;;;15.70;99.90;;;;;;5050146;28;20505;-46
2022/09/15 06:14:33;;;;;;;9.18;4.75;;;15.70;99.90;;;;;;5070684;28;20118;-46
2022/09/15 06:17:00;;;;;;;8.95;4.85;;;15.70;99.90;;;;;;5039178;28;20494;-46
2022/09/15 06:19:27;;;;;;;9.93;4.47;;;15.70;99.90;;;;;;5071161;28;20416;-46
2022/09/15 06:21:53;;;;;;;5.40;3.97;;;15.70;99.90;;;;;;5070059;28;20045;-46
2022/09/15 06:24:20;;;;;;;4.43;3.67;;;15.60;99.90;;;;;;5055301;28;20094;-48
2022/09/15 06:26:47;;;;;;;4.53;3.25;;;15.70;99.90;;;;;;5042142;28;20053;-46
2022/09/15 06:29:14;;;;;;;3.90;2.95;;;15.70;99.90;;;;;;5037568;28;20433;-46
2022/09/15 06:31:40;;;;;;;5.65;3.10;;;15.70;99.90;;;;;;5043059;28;20131;-46
2022/09/15 06:34:10;;;;;;;3.80;2.85;;;15.80;99.90;;;;;;5050778;28;20565;-46
2022/09/15 06:36:37;;;;;;;6.20;3.53;;;15.70;99.90;;;;;;5040023;28;20037;-47
2022/09/15 06:39:04;;;;;;;5.55;3.70;;;15.80;99.90;;;;;;5047114;28;20037;-47
2022/09/15 06:41:31;;;;;;;7.85;4.93;;;15.80;99.90;;;;;;5048534;28;20029;-48
2022/09/15 06:44:19;;;;;;;9.30;4.80;;;15.80;99.90;;;;;;5039731;28;20049;-46
2022/09/15 06:46:46;;;;;;;7.45;4.72;;;15.90;99.90;;;;;;5035666;28;20053;-47
2022/09/15 06:49:13;;;;;;;6.10;4.65;;;16.00;99.90;;;;;;5041584;28;20482;-47
2022/09/15 06:51:39;;;;;;;8.35;4.43;;;16.00;99.90;;;;;;5050533;28;20041;-47
2022/09/15 06:54:06;;;;;;;7.82;4.32;;;16.10;99.90;;;;;;5049891;28;20044;-47
2022/09/15 06:56:33;;;;;;;5.78;4.63;;;16.10;99.90;;;;;;5049095;28;20036;-47
2022/09/15 06:59:04;;;;;;;6.40;3.75;;;16.20;99.90;;;;;;5049748;28;20048;-46
2022/09/15 07:01:31;;;;;;;4.72;3.90;;;16.20;99.90;;;;;;5050269;28;20119;-46
2022/09/15 07:04:00;;;;;;;5.43;4.40;;;16.40;99.90;;;;;;5049670;28;20127;-46
2022/09/15 07:06:28;;;;;;;9.27;4.15;;;16.50;99.90;;;;;;5044963;28;20045;-46
2022/09/15 07:08:56;;;;;;;7.20;3.92;;;16.60;99.90;;;;;;5050435;28;20071;-46
2022/09/15 07:11:23;;;;;;;7.22;3.88;;;16.70;99.90;;;;;;5048873;28;20076;-46
2022/09/15 07:13:50;;;;;;;5.50;3.75;;;16.70;99.90;;;;;;5050057;28;20546;-47
2022/09/15 07:16:17;;;;;;;;;;;16.80;99.90;;;;;;5050120;28;20124;-46
2022/09/15 07:18:45;;;;;;;6.05;4.00;;;16.80;99.90;;;;;;5050345;28;20396;-46
2022/09/15 07:21:15;;;;;;;6.88;3.97;;;16.90;99.90;;;;;;5023726;28;20042;-47
2022/09/15 07:23:43;;;;;;;7.55;3.80;;;16.90;99.90;;;;;;5049966;28;20048;-47
2022/09/15 07:26:15;;;;;;;6.43;4.28;;;16.90;99.90;;;;;;5049950;28;20064;-46
2022/09/15 07:28:44;;;;;;;11.15;5.05;;;16.80;99.90;;;;;;5053245;28;20123;-48
2022/09/15 07:31:14;;;;;;;7.20;5.00;;;16.70;99.90;;;;;;5053718;28;20065;-46
2022/09/15 07:33:41;;;;;;;6.50;4.82;;;16.60;99.90;;;;;;5052658;28;20527;-48
2022/09/15 07:36:09;;;;;;;9.55;5.80;;;16.70;99.90;;;;;;5049211;28;20041;-47
2022/09/15 07:38:39;;;;;;;7.90;4.68;;;16.80;99.90;;;;;;5068547;28;20546;-46
2022/09/15 07:41:08;;;;;;;9.38;5.35;;;16.80;99.90;;;;;;5073553;28;20472;-46
2022/09/15 07:43:35;;;;;;;9.02;5.30;;;16.80;99.90;;;;;;5073448;28;20436;-46
2022/09/15 07:46:03;;;;;;;9.65;5.68;;;16.80;99.90;;;;;;5043879;28;20068;-46
2022/09/15 07:48:30;;;;;;;8.75;5.85;;;17.00;99.90;;;;;;5047526;28;20076;-46
2022/09/15 07:51:00;;;;;;;9.93;5.78;;;17.20;99.90;;;;;;5047433;28;20120;-46
2022/09/15 07:53:28;;;;;;;7.72;5.78;;;17.40;99.90;;;;;;5047518;28;20079;-46
2022/09/15 07:55:55;;;;;;;8.32;5.75;;;17.70;99.90;;;;;;5047212;28;20549;-46
2022/09/15 07:58:22;;;;;;;10.15;6.13;;;17.80;99.90;;;;;;5047038;28;20076;-46
2022/09/15 08:00:49;;;;;;;;;;;17.90;99.90;;;;;;5039278;28;20052;-48
2022/09/15 08:03:16;;;;;;;9.32;5.82;;;17.90;99.90;;;;;;5050975;28;19970;-46
2022/09/15 08:05:42;;;;;;;13.18;6.97;;;17.60;99.90;;;;;;5051763;28;20145;-46
2022/09/15 08:08:11;;;;;;;10.77;6.70;;;17.50;99.90;;;;;;5053121;28;20094;-47
2022/09/15 08:10:51;;;;;;;8.93;5.97;;;17.40;99.90;;;;;;5043439;28;20136;-45
2022/09/15 08:13:38;;;;;;;11.10;5.85;;;17.40;99.90;;;;;;5066017;28;20041;-48
2022/09/15 08:16:10;;;;;;;7.22;5.03;;;17.50;99.90;;;;;;5064860;28;20444;-46
2022/09/15 08:18:38;;;;;;;7.05;5.13;;;17.80;99.90;;;;;;5060991;28;20041;-45
2022/09/15 08:21:08;;;;;;;8.27;5.60;;;18.10;99.90;;;;;;5052197;28;20079;-45
2022/09/15 08:23:35;;;;;;;6.05;4.20;;;18.20;99.90;;;;;;5060724;28;20112;-45
2022/09/15 08:26:09;;;;;;;6.38;4.47;;;18.50;99.90;;;;;;5052747;28;20069;-45
2022/09/15 08:28:40;;;;;;;7.95;4.95;;;18.90;99.90;;;;;;5055517;28;20048;-44
2022/09/15 08:31:08;;;;;;;;;;;18.90;99.90;;;;;;5052995;28;20048;-44
2022/09/15 08:33:35;;;;;;;6.13;3.93;;;19.00;99.90;;;;;;5052088;28;19921;-45
2022/09/15 08:36:05;;;;;;;6.93;3.92;;;18.90;99.90;;;;;;5052720;28;20709;-45
2022/09/15 08:38:33;;;;;;;8.20;3.45;;;19.20;99.90;;;;;;5065858;28;20072;-44
2022/09/15 08:41:04;;;;;;;5.07;3.72;;;19.40;99.90;;;;;;5063353;28;20128;-45
2022/09/15 08:43:39;;;;;;;4.22;3.67;;;19.60;99.90;;;;;;5071783;28;20478;-45
2022/09/15 08:46:12;;;;;;;5.80;3.33;;;19.70;99.90;;;;;;5065993;28;20052;-49
2022/09/15 08:48:44;;;;;;;6.63;3.60;;;20.00;99.90;;;;;;5068586;28;20107;-45
2022/09/15 08:51:19;;;;;;;6.90;3.60;;;20.00;99.90;;;;;;5069369;28;20086;-45
2022/09/15 08:53:52;;;;;;;4.97;3.25;;;20.00;99.90;;;;;;5049630;28;20131;-46
2022/09/15 08:56:19;;;;;;;4.68;3.00;;;19.70;99.90;;;;;;5066858;28;20090;-45
2022/09/15 08:58:46;;;;;;;4.75;2.75;;;19.80;99.90;;;;;;5071226;28;20086;-44
2022/09/15 09:01:38;;;;;;;7.10;2.88;;;19.80;99.90;;;;;;5067619;28;20119;-44
2022/09/15 09:04:41;;;;;;;3.88;2.95;;;19.80;99.90;;;;;;5064305;28;20036;-46
2022/09/15 09:07:42;;;;;;;4.70;2.95;;;19.60;99.90;;;;;;5071898;28;20083;-44
2022/09/15 09:10:32;;;;;;;6.47;2.92;;;19.70;99.90;;;;;;5064234;28;20083;-46
2022/09/15 09:13:27;;;;;;;3.47;2.80;;;19.80;99.90;;;;;;5058505;28;20116;-45
2022/09/15 09:16:15;;;;;;;4.72;2.42;;;20.20;99.90;;;;;;5070821;28;20052;-48
2022/09/15 09:19:15;;;;;;;5.55;2.63;;;20.20;99.90;;;;;;5069689;28;20049;-47
2022/09/15 09:21:47;;;;;;;3.10;2.50;;;19.80;99.90;;;;;;5052992;28;20080;-47
2022/09/15 09:24:16;;;;;;;4.93;2.30;;;19.60;99.90;;;;;;5049818;28;20037;-46
2022/09/15 09:26:48;;;;;;;4.22;2.63;;;19.60;99.90;;;;;;5050159;28;20509;-46
2022/09/15 09:29:22;;;;;;;4.57;2.10;;;19.60;99.90;;;;;;5049932;28;20124;-46
2022/09/15 09:31:52;;;;;;;4.03;2.83;;;19.70;99.90;;;;;;5051332;28;20128;-46
2022/09/15 09:34:44;;;;;;;3.88;2.80;;;19.60;99.90;;;;;;5049659;28;20468;-47
2022/09/15 09:37:14;;;;;;;7.32;3.08;;;19.60;99.90;;;;;;5051644;28;20559;-46
2022/09/15 09:39:41;;;;;;;3.95;2.90;;;19.70;99.90;;;;;;5060538;28;20080;-46
2022/09/15 09:42:14;;;;;;;4.93;2.78;;;19.80;99.90;;;;;;5051486;28;20124;-47
2022/09/15 09:44:41;;;;;;;3.22;2.70;;;19.90;99.90;;;;;;5054872;28;20115;-47
2022/09/15 09:47:08;;;;;;;5.55;2.80;;;19.90;99.90;;;;;;5051287;28;20123;-46
2022/09/15 09:49:44;;;;;;;;;;;20.00;99.90;;;;;;5050563;28;20132;-47
2022/09/15 09:52:11;;;;;;;6.30;2.55;;;20.10;99.90;;;;;;5058872;28;20007;-47
2022/09/15 09:54:38;;;;;;;3.13;2.35;;;20.20;99.90;;;;;;5057048;28;20479;-46
2022/09/15 09:57:35;;;;;;;3.42;2.20;;;20.40;99.90;;;;;;5051149;28;20131;-47
2022/09/15 10:00:30;;;;;;;2.80;2.33;;;20.50;99.90;;;;;;5051302;28;20395;-47
2022/09/15 10:03:07;;;;;;;4.90;2.40;;;20.60;99.90;;;;;;5062390;28;20060;-47
2022/09/15 10:05:34;;;;;;;4.77;2.43;;;20.80;99.90;;;;;;5050407;28;20108;-46
2022/09/15 10:08:01;;;;;;;4.15;2.40;;;20.90;99.90;;;;;;5051187;28;20594;-46
2022/09/15 10:10:31;;;;;;;3.03;2.55;;;21.00;99.90;;;;;;5049201;28;20115;-46
2022/09/15 10:13:01;;;;;;;7.85;2.40;;;21.10;99.90;;;;;;5056752;28;20506;-47
2022/09/15 10:15:33;;;;;;;2.25;1.95;;;21.30;99.90;;;;;;5061441;28;20507;-46
2022/09/15 10:18:00;;;;;;;5.22;2.30;;;21.50;99.90;;;;;;5070492;28;20105;-47
2022/09/15 10:20:31;;;;;;;4.40;2.20;;;21.80;99.90;;;;;;5068431;28;20124;-46
2022/09/15 10:23:24;;;;;;;3.60;2.10;;;22.00;99.90;;;;;;5066309;28;20048;-46
2022/09/15 10:25:55;;;;;;;6.38;2.55;;;22.00;99.90;;;;;;5050348;28;20147;-47
2022/09/15 10:28:26;;;;;;;2.80;2.30;;;22.20;99.90;;;;;;5050705;28;20122;-47
2022/09/15 10:31:06;;;;;;;8.43;2.28;;;21.90;99.90;;;;;;5050934;28;20120;-47
2022/09/15 10:33:35;;;;;;;5.35;2.40;;;21.80;99.90;;;;;;5063163;28;20048;-48
2022/09/15 10:36:20;;;;;;;2.75;2.08;;;21.50;99.90;;;;;;5069327;28;20039;-46
2022/09/15 10:38:51;;;;;;;3.53;2.65;;;21.30;99.90;;;;;;5066970;28;20488;-46
2022/09/15 10:41:24;;;;;;;3.42;2.47;;;21.30;99.90;;;;;;5064097;28;20067;-47
2022/09/15 10:44:25;;;;;;;2.15;1.95;;;21.20;99.90;;;;;;5067809;28;20523;-47
2022/09/15 10:47:17;;;;;;;3.28;2.35;;;21.50;99.90;;;;;;5064138;28;20049;-47
2022/09/15 10:49:58;;;;;;;4.53;2.22;;;21.70;99.90;;;;;;5067691;28;20040;-47
2022/09/15 10:52:55;;;;;;;3.25;2.40;;;22.00;99.90;;;;;;5064015;28;20041;-47
2022/09/15 10:55:37;;;;;;;2.95;2.08;;;22.00;99.90;;;;;;5063851;28;20076;-47
2022/09/15 10:58:43;;;;;;;5.43;2.25;;;21.90;99.90;;;;;;5067458;28;20045;-46
2022/09/15 11:01:21;;;;;;;4.13;2.35;;;21.60;99.90;;;;;;5058124;28;20041;-47
2022/09/15 11:04:03;;;;;;;4.20;3.45;;;21.20;99.90;;;;;;5068169;28;20335;-48
2022/09/15 11:06:49;;;;;;;5.18;3.60;;;20.80;99.90;;;;;;5071031;28;20037;-46
2022/09/15 11:09:23;;;;;;;6.82;2.72;;;20.40;99.90;;;;;;5071838;28;20048;-47
2022/09/15 11:12:21;;;;;;;5.60;2.72;;;20.20;99.90;;;;;;5065720;28;20327;-47
2022/09/15 11:15:04;;;;;;;4.88;3.40;;;20.00;99.90;;;;;;5064284;28;20044;-47
2022/09/15 11:17:43;;;;;;;4.78;2.92;;;19.80;99.90;;;;;;5069792;28;20059;-45
2022/09/15 11:20:38;;;;;;;6.43;3.58;;;19.70;99.90;;;;;;5071914;28;20119;-48
2022/09/15 11:23:19;;;;;;;3.10;2.50;;;19.70;99.90;;;;;;5071771;28;20033;-46
2022/09/15 11:25:51;;;;;;;5.95;2.95;;;19.60;99.90;;;;;;5063495;28;20033;-46
2022/09/15 11:28:44;;;;;;;4.75;2.65;;;19.40;99.90;;;;;;5058720;28;20479;-47
2022/09/15 11:31:25;;;;;;;5.43;3.03;;;19.30;99.90;;;;;;5044066;28;20060;-47
2022/09/15 11:34:14;;;;;;;6.97;3.47;;;19.20;99.90;;;;;;5051704;28;20078;-46
2022/09/15 11:37:02;;;;;;;;;;;19.10;99.90;;;;;;5060599;28;20076;-47
2022/09/15 11:39:36;;;;;;;5.05;2.92;;;19.20;99.90;;;;;;5052634;28;19971;-47
2022/09/15 11:42:08;;;;;;;5.53;2.63;;;19.30;99.90;;;;;;5052280;28;20045;-44
2022/09/15 11:44:42;;;;;;;6.43;3.55;;;19.60;99.90;;;;;;5055977;28;20056;-48
2022/09/15 11:47:35;;;;;;;6.10;2.92;;;20.10;99.90;;;;;;5071148;28;20045;-47
2022/09/15 11:50:08;;;;;;;6.82;3.00;;;20.60;99.90;;;;;;5071991;28;20408;-47
2022/09/15 11:53:03;;;;;;;5.15;2.53;;;21.00;99.90;;;;;;5069579;28;20033;-46
2022/09/15 11:55:33;;;;;;;3.28;2.45;;;21.30;99.90;;;;;;5070823;28;20041;-47
2022/09/15 11:58:43;;;;;;;3.80;2.40;;;21.60;99.90;;;;;;5071643;28;20046;-47
2022/09/15 12:01:09;;;;;;;;;;;21.90;99.90;;;;;;5039344;28;20080;-47
2022/09/15 12:03:49;;;;;;;4.28;2.35;;;21.90;99.90;;;;;;5071157;28;19927;-47
2022/09/15 12:06:37;;;;;;;4.03;2.22;;;21.80;99.90;;;;;;5071273;28;20098;-47
2022/09/15 12:09:14;;;;;;;3.45;1.80;;;22.00;99.90;;;;;;5071345;28;20048;-49
2022/09/15 12:11:53;;;;;;;2.17;1.70;;;21.90;99.90;;;;;;5066078;28;20044;-46
2022/09/15 12:14:37;;;;;;;4.60;2.05;;;21.60;99.90;;;;;;5070930;28;20036;-46
2022/09/15 12:17:07;;;;;;;3.65;2.15;;;21.40;99.90;;;;;;5072662;28;20064;-50
2022/09/15 12:19:47;;;;;;;5.55;2.17;;;21.40;99.90;;;;;;5066981;28;20037;-47
2022/09/15 12:22:33;;;;;;;4.10;1.77;;;21.40;99.90;;;;;;5052460;28;20045;-48
2022/09/15 12:25:08;;;;;;;3.17;1.90;;;21.50;99.90;;;;;;5051523;28;20073;-48
2022/09/15 12:27:35;;;;;;;2.28;1.60;;;21.90;99.90;;;;;;5057687;28;20382;-47
2022/09/15 12:30:03;;;;;;;3.72;1.65;;;22.30;99.90;;;;;;5061281;28;20094;-48
2022/09/15 12:32:33;;;;;;;2.78;1.67;;;22.10;99.90;;;;;;5066838;28;20041;-46
2022/09/15 12:35:05;;;;;;;4.18;1.35;;;21.90;99.90;;;;;;5071648;28;20087;-46
2022/09/15 12:37:40;;;;;;;;;;;21.90;99.90;;;;;;5067819;28;20040;-47
2022/09/15 12:40:39;;;;;;;2.00;1.55;;;22.00;99.90;;;;;;5066608;28;19924;-46
2022/09/15 12:43:12;;;;;;;5.57;1.67;;;22.10;99.90;;;;;;5071530;28;20955;-46
2022/09/15 12:45:41;;;;;;;2.42;1.30;;;22.50;99.90;;;;;;5063367;28;20060;-46
2022/09/15 12:48:20;;;;;;;2.15;1.40;;;23.00;99.90;;;;;;5068972;28;20036;-47
2022/09/15 12:50:57;;;;;;;2.28;1.48;;;23.60;99.90;;;;;;5072265;28;20047;-46
2022/09/15 12:53:29;;;;;;;3.03;1.00;;;23.80;99.90;;;;;;5067152;28;20041;-48
2022/09/15 12:56:02;;;;;;;2.55;1.75;;;23.80;99.90;;;;;;5052015;28;20091;-46
2022/09/15 12:58:39;;;;;;;2.38;1.02;;;24.10;99.90;;;;;;5051332;28;20049;-46
2022/09/15 13:01:26;;;;;;;2.10;1.02;;;24.30;99.90;;;;;;5052026;28;20091;-47
2022/09/15 13:03:58;;;;;;;2.30;1.15;;;24.40;99.90;;;;;;5051414;28;20051;-47
2022/09/15 13:06:32;;;;;;;3.63;1.13;;;24.00;99.90;;;;;;5051713;28;20056;-48
2022/09/15 13:09:04;;;;;;;3.83;1.20;;;23.90;99.90;;;;;;5034076;28;20444;-48
2022/09/15 13:11:36;;;;;;;1.38;1.00;;;23.80;99.90;;;;;;5062450;28;20044;-49
2022/09/15 13:14:06;;;;;;;2.03;1.23;;;23.90;99.90;;;;;;5033963;28;20516;-46
2022/09/15 13:16:39;;;;;;;2.05;1.50;;;24.10;99.90;;;;;;5068321;28;20103;-48
2022/09/15 13:19:23;;;;;;;3.90;1.77;;;23.80;99.90;;;;;;5070988;28;20071;-47
2022/09/15 13:21:57;;;;;;;1.80;1.02;;;23.50;99.90;;;;;;5046510;28;20045;-46
2022/09/15 13:24:36;;;;;;;3.47;1.55;;;23.50;99.90;;;;;;5051037;28;20584;-46